Flight Track Log - Related Links

Times and Time Zones

All times are in EST time to prevent confusion due to time zone crossing. See the CNS128 flight status page for this flight to view local times or setup timezone preferences in your user account.

Time Position Orientation Groundspeed Altitude Reporting Facility
EST Latitude Longitude Course Direction KTS MPH feet Rate Location/Type
Fri 08:29:05 AM 39.2000 -77.1667 96° East 122 140 2,400  Level Potomac TRACON
Fri 08:30:05 AM 39.2333 -77.1667 360° North 117 135 4,600 1,755 Climbing Potomac TRACON
Fri 08:32:13 AM 39.2814 -77.1489 16° North 149 171 7,900 1,532 Climbing Washington Center
Fri 08:33:13 AM 39.2939 -77.0928 74° East 159 183 9,400 1,694 Climbing Washington Center
Fri 08:34:00 AM 39.4384 -76.7247 96° East  Level Estimated
Fri 08:34:17 AM 39.3103 -77.0186 74° East 178 205 11,400  Level Washington Center
Fri 08:35:17 AM 39.3175 -76.9492 82° East 195 224 12,500 780 Climbing Washington Center
Fri 08:36:20 AM 39.2994 -76.8692 106° East 229 264 13,000 484 Climbing Washington Center
Fri 08:37:21 AM 39.2772 -76.7739 107° East 271 312 13,500 871 Climbing Washington Center
Fri 08:38:24 AM 39.2567 -76.6847 107° East 265 305 14,800 661 Climbing Washington Center
Fri 08:39:28 AM 39.2356 -76.5925 106° East 264 304 14,900 96 Climbing Washington Center
Fri 08:40:29 AM 39.2072 -76.4681 106° East 297 342 15,000 49 Climbing Washington Center
Fri 08:41:30 AM 39.1797 -76.3636 109° East 304 350 15,000  Level Washington Center
Fri 08:42:34 AM 39.1578 -76.2575 105° East 305 351 15,000 95 Level Washington Center
Fri 08:43:36 AM 39.1603 -76.1406 88° East 315 362 15,200 443 Climbing Washington Center
Fri 08:44:36 AM 39.1736 -76.0358 81° East 302 348 15,900 339 Climbing Washington Center
Fri 08:45:40 AM 39.1869 -75.9294 81° East 301 346 15,900 48 Level Washington Center
Fri 08:46:40 AM 39.2231 -75.8339 64° Northeast 304 350 16,000 532 Climbing Washington Center
Fri 08:47:44 AM 39.2831 -75.7636 42° Northeast 288 331 17,000 816 Climbing Washington Center
Fri 08:48:45 AM 39.3483 -75.6819 44° Northeast 276 318 17,700 912 Climbing Washington Center
Fri 08:49:49 AM 39.4058 -75.6228 38° Northeast 267 307 18,900 1,200 Climbing Washington Center
Fri 08:50:50 AM 39.4575 -75.5681 39° Northeast 241 277 20,200 1,230 Climbing Washington Center
Fri 08:51:51 AM 39.5047 -75.5136 42° Northeast 230 265 21,400 1,024 Climbing Washington Center
Fri 08:52:53 AM 39.5519 -75.4592 42° Northeast 229 264 22,300 864 Climbing Washington Center
Fri 08:53:56 AM 39.6011 -75.4031 41° Northeast 232 267 23,200 898 Climbing Washington Center
Fri 08:55:00 AM 39.6617 -75.3342 41° Northeast 238 274 24,200 774 Climbing Washington Center
Fri 08:56:00 AM 39.7103 -75.2661 47° Northeast 255 293 24,800 397 Climbing Washington Center
Fri 08:57:01 AM 39.7583 -75.1872 52° Northeast 276 318 25,000 96 Climbing Washington Center
Fri 08:58:05 AM 39.8161 -75.1000 49° Northeast 291 335 25,000  Level Washington Center
Fri 08:59:07 AM 39.8747 -75.0075 50° Northeast 308 354 25,000  Level Washington Center
Fri 09:00:10 AM 39.9317 -74.9189 50° Northeast 318 366 25,000  Level Washington Center
Fri 09:01:10 AM 39.9922 -74.8233 50° Northeast 317 365 25,000  Level Washington Center
Fri 09:02:14 AM 40.0397 -74.7494 50° Northeast 315 362 25,000  Level Washington Center
Fri 09:03:14 AM 40.1078 -74.6414 51° Northeast 318 366 25,000  Level Washington Center
Fri 09:04:18 AM 40.1581 -74.5422 56° Northeast 326 375 25,000  Level Washington Center
Fri 09:05:19 AM 40.2097 -74.4442 55° Northeast 327 376 25,000  Level Washington Center
Fri 09:06:23 AM 40.2606 -74.3442 56° Northeast 329 379 25,000  Level Washington Center
Fri 09:07:24 AM 40.3117 -74.2456 56° Northeast 329 379 25,000  Level Washington Center
Fri 09:08:27 AM 40.3744 -74.1247 56° Northeast 326 375 25,000  Level New York Center
Fri 09:09:27 AM 40.4250 -74.0261 56° Northeast 326 375 25,000 -200 Level New York Center
Fri 09:10:27 AM 40.4758 -73.9250 57° Northeast 326 375 24,600 -650 Descending New York Center
Fri 09:11:27 AM 40.5306 -73.8183 56° Northeast 331 381 23,700 -950 Descending New York Center
Fri 09:12:27 AM 40.5853 -73.7142 55° Northeast 344 396 22,700 -971 Descending New York Center
Fri 09:14:51 AM 40.7136 -73.4600 56° Northeast 350 403 20,400 -966 Descending Boston Center
Fri 09:15:52 AM 40.7689 -73.3517 56° Northeast 352 405 19,400 -689 Descending Boston Center
Fri 09:16:53 AM 40.8300 -73.2603 49° Northeast 344 396 19,000 -393 Descending Boston Center
Fri 09:17:54 AM 40.8978 -73.1817 41° Northeast 326 375 18,600 -541 Descending Boston Center
Fri 09:18:55 AM 40.9681 -73.0992 42° Northeast 332 382 17,900 -443 Descending Boston Center
Fri 09:19:56 AM 41.0389 -73.0156 42° Northeast 337 388 17,700 -443 Descending Boston Center
Fri 09:20:57 AM 41.1094 -72.9333 41° Northeast 337 388 17,000 -689 Descending Boston Center
Fri 09:21:58 AM 41.1783 -72.8519 42° Northeast 332 382 16,300 -689 Descending Boston Center
Fri 09:22:59 AM 41.2456 -72.7725 42° Northeast 325 374 15,600 -639 Descending Boston Center
Fri 09:24:00 AM 41.3169 -72.6900 41° Northeast 318 366 15,000 -295 Descending Boston Center
Fri 09:25:01 AM 41.3944 -72.6575 17° North 267 307 15,000  Level Boston Center
Fri 09:26:03 AM 41.4650 -72.6231 20° North 268 308 15,000  Level Boston Center
Fri 09:27:04 AM 41.5292 -72.5600 36° Northeast 284 327 15,000 -295 Level Boston Center
Fri 09:28:05 AM 41.5944 -72.5017 34° Northeast 283 326 14,400 -836 Descending Boston Center
Fri 09:29:06 AM 41.6700 -72.4311 35° Northeast 303 349 13,300 -1,033 Descending Boston Center
Fri 09:30:07 AM 41.7389 -72.3669 35° Northeast 304 350 12,300 -857 Descending Boston Center
Fri 09:30:09 AM 41.7383 -72.3661 132° Southeast 297 342 12,400 -947 Climbing Boston Center
Fri 09:30:45 AM 41.7797 -72.3317 32° Northeast 283 326 11,700 -1,119 Descending Boston Center
Fri 09:31:08 AM 41.8039 -72.3078 36° Northeast 285 328 11,300 -590 Descending Boston Center
Fri 09:31:46 AM 41.8433 -72.2706 35° Northeast 280 322 11,100 -295 Descending Boston Center
Fri 09:32:09 AM 41.8667 -72.2508 32° Northeast 273 314 11,000 -393 Descending Boston Center
Fri 09:32:47 AM 41.9067 -72.2122 36° Northeast 264 304 10,700 -590 Descending Boston Center
Fri 09:33:10 AM 41.9317 -72.1897 34° Northeast 267 307 10,400 -590 Descending Boston Center
Fri 09:33:48 AM 41.9697 -72.1533 35° Northeast 274 315 10,100 -393 Descending Boston Center
Fri 09:34:11 AM 41.9939 -72.1322 33° Northeast 271 312 10,000 -98 Descending Boston Center
Fri 09:34:49 AM 42.0306 -72.0967 36° Northeast 262 302 10,000 -492 Level Boston Center
Fri 09:35:12 AM 42.0536 -72.0764 33° Northeast 262 302 9,500 -1,200 Descending Boston Center
Fri 09:35:49 AM 42.0906 -72.0425 34° Northeast 260 299 8,800 -1,180 Descending Boston Center
Fri 09:36:13 AM 42.1125 -72.0208 36° Northeast 261 300 8,300 -1,180 Descending Boston Center
Fri 09:36:50 AM 42.1469 -71.9842 38° Northeast 251 289 7,600 -1,279 Descending Boston Center
Fri 09:37:14 AM 42.1692 -71.9572 42° Northeast 245 282 7,000 -1,200 Descending Boston Center
Fri 09:38:15 AM 42.2181 -71.9039 39° Northeast 240 276 5,900 -984 Descending Boston Center
Fri 09:39:16 AM 42.2703 -71.8469 39° Northeast 227 261 5,000 -443 Descending Boston Center
Fri 09:40:17 AM 42.3175 -71.7931 40° Northeast 223 257 5,000  Level Boston Center
Fri 09:41:18 AM 42.3658 -71.7344 42° Northeast 228 262 5,000 -295 Level Boston Center
Fri 09:42:19 AM 42.3842 -71.6483 74° East 238 274 4,400 -919 Descending Boston Center
Fri 09:43:22 AM 42.4000 -71.5667 75° East 232 267 3,100 -791 Descending KA90
Fri 09:44:28 AM 42.4167 -71.4667 77° East 219 252 2,700 -576 Descending KA90
Fri 09:45:27 AM 42.4333 -71.4000 71° East 216 249 1,900 -579 Descending KA90
Fri 09:46:22 AM 42.4500 -71.3333 71° East 188 216 1,600 -157 Descending KA90
Fri 09:47:22 AM 42.4333 -71.2667 109° East 163 188 1,600 -238 Level KA90
Fri 09:48:28 AM 42.4667 -71.2333 36° Northeast 91 105 1,100 -455 Descending KA90
Fri 09:51:00 AM 42.4667 -71.2833 324° Northwest  Level FlightAware Approximate

Login

Don't have an account? Register now (free) for customized features, flight alerts, and more!